createdAt,value
2023-05-31T00:01:43.027Z,46.11
2023-05-31T00:03:44.779Z,46.28
2023-05-31T00:05:46.487Z,46.35
2023-05-31T00:07:50.497Z,46.32
2023-05-31T00:09:52.105Z,46.26
2023-05-31T00:11:53.537Z,46.21
2023-05-31T00:13:55.079Z,46.26
2023-05-31T00:15:56.791Z,46.44
2023-05-31T00:17:58.374Z,46.27
2023-05-31T00:19:59.817Z,46.19
2023-05-31T00:22:01.694Z,46.05
2023-05-31T00:24:03.098Z,46.17
2023-05-31T00:26:04.748Z,46.18
2023-05-31T00:28:06.276Z,46.01
2023-05-31T00:30:10.764Z,46.40
2023-05-31T00:32:12.544Z,46.27
2023-05-31T00:34:13.942Z,46.47
2023-05-31T00:36:15.601Z,46.77
2023-05-31T00:38:19.098Z,46.74
2023-05-31T00:40:20.801Z,46.88
2023-05-31T00:42:22.405Z,47.01
2023-05-31T00:44:23.838Z,47.28
2023-05-31T00:46:38.735Z,47.05
2023-05-31T00:48:42.860Z,47.14
2023-05-31T00:50:45.763Z,47.35
2023-05-31T00:52:51.704Z,47.46
2023-05-31T00:54:53.061Z,47.25
2023-05-31T00:56:57.564Z,47.47
2023-05-31T00:59:00.481Z,47.66
2023-05-31T01:01:04.948Z,47.60
2023-05-31T01:03:10.148Z,47.54
2023-05-31T01:05:11.797Z,47.72
2023-05-31T01:07:15.529Z,47.47
2023-05-31T01:09:18.370Z,47.62
2023-05-31T01:11:34.647Z,47.61
2023-05-31T01:13:45.755Z,47.86
2023-05-31T01:15:56.559Z,48.03
2023-05-31T01:18:19.323Z,48.43
2023-05-31T01:20:27.272Z,48.74
2023-05-31T01:22:58.470Z,49.09
2023-05-31T01:25:19.960Z,48.97
2023-05-31T01:27:22.850Z,48.95
2023-05-31T01:29:26.691Z,49.02
2023-05-31T01:31:31.903Z,49.08
2023-05-31T01:33:35.241Z,48.97
2023-05-31T01:35:36.710Z,49.11
2023-05-31T01:37:38.084Z,49.15
2023-05-31T01:39:40.217Z,49.24
2023-05-31T01:41:44.242Z,49.20
2023-05-31T01:43:47.214Z,49.36
2023-05-31T01:45:49.495Z,49.33
2023-05-31T01:47:59.097Z,49.51
2023-05-31T01:50:01.074Z,49.79
2023-05-31T01:52:05.347Z,49.95
2023-05-31T01:54:06.844Z,50.20
2023-05-31T01:56:09.780Z,50.23
2023-05-31T01:58:13.021Z,50.20
2023-05-31T02:00:15.345Z,50.19
2023-05-31T02:02:17.433Z,50.25
2023-05-31T02:04:20.151Z,50.18
2023-05-31T02:06:21.594Z,50.20
2023-05-31T02:08:24.335Z,50.09
2023-05-31T02:10:25.853Z,49.97
2023-05-31T02:12:27.444Z,50.00
2023-05-31T02:14:29.187Z,50.15
2023-05-31T02:16:31.186Z,50.10
2023-05-31T02:18:33.425Z,50.22
2023-05-31T02:20:35.000Z,50.22
2023-05-31T02:22:36.574Z,50.36
2023-05-31T02:24:38.261Z,50.29
2023-05-31T02:26:41.390Z,50.26
2023-05-31T02:28:43.945Z,50.41
2023-05-31T02:31:00.507Z,50.21
2023-05-31T02:33:02.805Z,50.24
2023-05-31T02:35:05.987Z,50.44
2023-05-31T02:37:07.325Z,50.36
2023-05-31T02:39:10.035Z,50.41
2023-05-31T02:41:11.644Z,50.60
2023-05-31T02:43:14.012Z,50.68
2023-05-31T02:45:15.615Z,50.85
2023-05-31T02:47:17.241Z,50.73
2023-05-31T02:49:19.825Z,50.94
2023-05-31T02:51:21.457Z,50.87
2023-05-31T02:53:58.097Z,51.06
2023-05-31T02:56:01.625Z,51.09
2023-05-31T02:58:20.535Z,51.26
2023-05-31T03:00:52.730Z,51.24
2023-05-31T03:02:55.373Z,51.23
2023-05-31T03:05:17.011Z,51.46
2023-05-31T03:07:19.439Z,51.38
2023-05-31T03:09:20.754Z,51.40
2023-05-31T03:11:22.683Z,51.31
2023-05-31T03:13:24.116Z,51.58
2023-05-31T03:15:25.575Z,51.47
2023-05-31T03:17:28.274Z,51.56
2023-05-31T03:19:29.890Z,51.56
2023-05-31T03:21:31.763Z,51.65
2023-05-31T03:23:34.152Z,51.64
2023-05-31T03:25:35.488Z,51.69
2023-05-31T03:27:36.721Z,51.84
2023-05-31T03:29:43.459Z,51.86
2023-05-31T03:31:44.898Z,52.08
2023-05-31T03:33:46.516Z,52.23
2023-05-31T03:35:47.815Z,52.57
2023-05-31T03:37:51.947Z,52.82
2023-05-31T03:39:53.236Z,52.76
2023-05-31T03:42:01.985Z,52.92
2023-05-31T03:44:07.083Z,52.96
2023-05-31T03:46:08.466Z,52.90
2023-05-31T03:48:09.839Z,53.13
2023-05-31T03:50:15.185Z,53.13
2023-05-31T03:52:17.518Z,53.41
2023-05-31T03:54:20.945Z,53.39
2023-05-31T03:56:23.645Z,53.49
2023-05-31T03:58:26.392Z,53.80
2023-05-31T04:00:30.340Z,53.90
2023-05-31T04:02:33.173Z,54.12
2023-05-31T04:04:37.233Z,54.02
2023-05-31T04:06:39.676Z,54.02
2023-05-31T04:08:41.148Z,54.10
2023-05-31T04:10:42.881Z,54.54
2023-05-31T04:12:44.436Z,54.67
2023-05-31T04:14:48.585Z,54.70
2023-05-31T04:16:57.742Z,54.96
2023-05-31T04:19:01.051Z,55.03
2023-05-31T04:21:03.505Z,55.22
2023-05-31T04:23:06.539Z,55.25
2023-05-31T04:25:09.761Z,55.34
2023-05-31T04:27:19.097Z,55.30
2023-05-31T04:29:26.168Z,55.29
2023-05-31T04:31:39.131Z,55.44
2023-05-31T04:33:54.083Z,55.35
2023-05-31T04:35:57.972Z,55.35
2023-05-31T04:38:03.223Z,55.27
2023-05-31T04:40:09.487Z,55.05
2023-05-31T04:42:11.959Z,55.08
2023-05-31T04:44:14.532Z,54.85
2023-05-31T04:46:17.707Z,54.93
2023-05-31T04:48:19.870Z,54.87
2023-05-31T04:50:21.801Z,54.78
2023-05-31T04:52:29.659Z,54.66
2023-05-31T04:54:31.229Z,54.51
2023-05-31T04:56:33.673Z,54.48
2023-05-31T04:58:35.733Z,54.20
2023-05-31T05:00:38.411Z,54.29
2023-05-31T05:02:56.763Z,54.09
2023-05-31T05:04:58.167Z,53.88
2023-05-31T05:07:00.750Z,53.94
2023-05-31T05:09:02.418Z,53.78
2023-05-31T05:11:05.824Z,53.65
2023-05-31T05:13:07.683Z,53.61
2023-05-31T05:15:10.401Z,53.81
2023-05-31T05:17:13.172Z,53.90
2023-05-31T05:19:14.907Z,53.98
2023-05-31T05:21:16.595Z,53.87
2023-05-31T05:23:18.029Z,53.74
2023-05-31T05:25:20.933Z,53.79
2023-05-31T05:27:22.486Z,53.53
2023-05-31T05:29:23.772Z,53.65
2023-05-31T05:31:25.220Z,53.76
2023-05-31T05:33:29.260Z,53.67
2023-05-31T05:35:31.457Z,53.59
2023-05-31T05:37:33.903Z,53.42
2023-05-31T05:39:36.461Z,53.22
2023-05-31T05:41:37.818Z,53.00
2023-05-31T05:43:40.146Z,52.64
2023-05-31T05:45:45.459Z,52.55
2023-05-31T05:47:49.507Z,52.21
2023-05-31T05:49:53.781Z,51.79
2023-05-31T05:51:55.448Z,51.75
2023-05-31T05:53:56.762Z,51.60
2023-05-31T05:55:58.179Z,51.35
2023-05-31T05:58:03.093Z,50.89
2023-05-31T06:00:19.519Z,50.68
2023-05-31T06:02:21.429Z,50.74
2023-05-31T06:04:23.251Z,50.61
2023-05-31T06:06:25.402Z,50.10
2023-05-31T06:08:27.087Z,49.58
2023-05-31T06:10:28.964Z,49.33
2023-05-31T06:12:31.160Z,49.22
2023-05-31T06:14:32.813Z,49.07
2023-05-31T06:16:39.916Z,48.81
2023-05-31T06:18:41.385Z,48.45
2023-05-31T06:20:43.961Z,48.50
2023-05-31T06:22:48.683Z,48.51
2023-05-31T06:24:51.773Z,48.41
2023-05-31T06:26:53.077Z,48.35
2023-05-31T06:29:04.897Z,48.67
2023-05-31T06:31:25.854Z,48.35
2023-05-31T06:33:27.735Z,48.32
2023-05-31T06:35:29.886Z,48.31
2023-05-31T06:37:31.862Z,47.81
2023-05-31T06:39:33.929Z,47.63
2023-05-31T06:41:35.698Z,47.29
2023-05-31T06:43:39.067Z,47.17
2023-05-31T06:46:11.027Z,46.83
2023-05-31T06:48:38.781Z,46.77
2023-05-31T06:51:00.910Z,46.80
2023-05-31T06:53:21.324Z,46.95
2023-05-31T06:55:26.078Z,46.91
2023-05-31T06:57:28.732Z,46.81
2023-05-31T06:59:32.795Z,46.62
2023-05-31T07:01:34.576Z,46.27
2023-05-31T07:03:36.891Z,46.32
2023-05-31T07:05:38.510Z,46.24
2023-05-31T07:07:39.956Z,46.24
2023-05-31T07:09:41.486Z,46.41
2023-05-31T07:11:45.038Z,46.12
2023-05-31T07:13:49.091Z,45.53
2023-05-31T07:15:52.680Z,44.82
2023-05-31T07:17:54.454Z,44.65
2023-05-31T07:19:57.113Z,44.40
2023-05-31T07:22:00.027Z,44.28
2023-05-31T07:24:01.524Z,44.34
2023-05-31T07:26:02.931Z,43.95
2023-05-31T07:28:04.345Z,43.58
2023-05-31T07:30:07.653Z,43.01
2023-05-31T07:32:09.452Z,42.35
2023-05-31T07:34:10.903Z,42.30
2023-05-31T07:36:12.411Z,42.49
2023-05-31T07:38:14.561Z,42.34
2023-05-31T07:40:16.278Z,42.02
2023-05-31T07:42:17.828Z,41.07
2023-05-31T07:44:20.498Z,40.80
2023-05-31T07:46:21.763Z,40.68
2023-05-31T07:48:24.217Z,40.32
2023-05-31T07:50:25.920Z,40.51
2023-05-31T07:52:27.702Z,40.72
2023-05-31T07:54:29.429Z,40.62
2023-05-31T07:56:31.836Z,40.17
2023-05-31T07:58:33.019Z,40.01
2023-05-31T08:00:35.885Z,40.04
2023-05-31T08:02:37.493Z,40.00
2023-05-31T08:04:39.282Z,39.57
2023-05-31T08:06:42.478Z,39.67
2023-05-31T08:08:44.686Z,39.89
2023-05-31T08:10:46.336Z,39.76
2023-05-31T08:12:48.813Z,39.62
2023-05-31T08:14:50.430Z,39.30
2023-05-31T08:16:56.833Z,39.02
2023-05-31T08:18:59.084Z,38.83
2023-05-31T08:21:00.651Z,38.99
2023-05-31T08:23:05.124Z,39.09
2023-05-31T08:25:08.371Z,38.92
2023-05-31T08:27:09.672Z,38.30
2023-05-31T08:29:10.981Z,38.57
2023-05-31T08:31:12.387Z,38.34
2023-05-31T08:33:13.728Z,37.61
2023-05-31T08:35:15.762Z,36.87
2023-05-31T08:37:19.869Z,36.76
2023-05-31T08:39:22.844Z,35.56
2023-05-31T08:41:24.766Z,35.87
2023-05-31T08:43:26.893Z,35.73
2023-05-31T08:45:31.475Z,36.08
2023-05-31T08:47:44.075Z,36.15
2023-05-31T08:49:46.720Z,36.06
2023-05-31T08:51:49.691Z,35.73
2023-05-31T08:53:51.785Z,35.54
2023-05-31T08:55:54.362Z,35.40
2023-05-31T08:57:57.093Z,35.00
2023-05-31T09:00:01.176Z,35.00
2023-05-31T09:02:03.877Z,34.58
2023-05-31T09:04:08.870Z,34.56
2023-05-31T09:06:10.117Z,34.10
2023-05-31T09:08:11.839Z,33.78
2023-05-31T09:10:15.365Z,33.72
2023-05-31T09:12:18.028Z,33.67
2023-05-31T09:14:20.096Z,33.43
2023-05-31T09:16:24.840Z,33.39
2023-05-31T09:18:30.438Z,33.24
2023-05-31T09:20:35.745Z,32.61
2023-05-31T09:22:37.278Z,32.41
2023-05-31T09:24:38.600Z,32.54
2023-05-31T09:26:48.333Z,32.05
2023-05-31T09:28:51.193Z,31.76
2023-05-31T09:31:06.222Z,32.12
2023-05-31T09:33:08.037Z,32.11
2023-05-31T09:35:14.694Z,31.66
2023-05-31T09:37:24.727Z,31.64
2023-05-31T09:39:26.299Z,31.94
2023-05-31T09:41:28.993Z,32.43
2023-05-31T09:43:30.423Z,32.21
2023-05-31T09:45:31.960Z,32.19
2023-05-31T09:47:37.192Z,32.43
2023-05-31T09:49:38.476Z,32.07
2023-05-31T09:51:40.601Z,31.92
2023-05-31T09:53:44.890Z,31.99
2023-05-31T09:55:46.485Z,31.91
2023-05-31T09:57:49.106Z,31.87
2023-05-31T09:59:56.955Z,31.22
2023-05-31T10:02:00.205Z,31.32
2023-05-31T10:04:03.876Z,31.42
2023-05-31T10:06:05.580Z,31.21
2023-05-31T10:08:07.200Z,30.72
2023-05-31T10:10:11.121Z,30.65
2023-05-31T10:12:17.123Z,30.39
2023-05-31T10:14:28.689Z,30.44
2023-05-31T10:16:50.023Z,30.38
2023-05-31T10:18:59.024Z,30.08
2023-05-31T10:21:11.305Z,29.90
2023-05-31T10:23:23.639Z,30.14
2023-05-31T10:25:30.488Z,29.91
2023-05-31T10:27:38.725Z,29.67
2023-05-31T10:29:43.944Z,29.68
2023-05-31T10:31:50.931Z,29.80
2023-05-31T10:33:57.358Z,29.96
2023-05-31T10:36:00.577Z,29.91
2023-05-31T10:38:02.841Z,29.78
2023-05-31T10:40:16.236Z,29.70
2023-05-31T10:42:26.619Z,29.37
2023-05-31T10:44:37.982Z,29.58
2023-05-31T10:46:41.030Z,29.44
2023-05-31T10:48:52.985Z,29.05
2023-05-31T10:51:00.831Z,29.12
2023-05-31T10:53:11.504Z,28.95
2023-05-31T10:55:22.498Z,29.15
2023-05-31T10:57:29.937Z,29.38
2023-05-31T10:59:46.059Z,29.29
2023-05-31T11:01:47.966Z,29.07
2023-05-31T11:03:52.289Z,28.50
2023-05-31T11:06:07.636Z,28.67
2023-05-31T11:08:14.349Z,28.86
2023-05-31T11:10:27.130Z,28.44
2023-05-31T11:12:35.626Z,28.23
2023-05-31T11:14:36.965Z,28.37
2023-05-31T11:16:44.513Z,28.71
2023-05-31T11:18:45.990Z,28.39
2023-05-31T11:20:49.080Z,28.25
2023-05-31T11:23:19.134Z,27.42
2023-05-31T11:25:23.332Z,27.26
2023-05-31T11:27:40.056Z,26.41
2023-05-31T11:29:44.652Z,26.01
2023-05-31T11:31:52.129Z,26.67
2023-05-31T11:33:58.509Z,27.18
2023-05-31T11:36:03.001Z,27.34
2023-05-31T11:38:06.424Z,27.28
2023-05-31T11:40:09.759Z,26.87
2023-05-31T11:42:11.447Z,26.80
2023-05-31T11:44:17.183Z,26.45
2023-05-31T11:46:21.472Z,26.29
2023-05-31T11:48:37.109Z,26.33
2023-05-31T11:50:39.182Z,26.44
2023-05-31T11:52:40.824Z,26.31
2023-05-31T11:54:51.697Z,26.05
2023-05-31T11:56:58.130Z,25.95
2023-05-31T11:58:59.654Z,26.13
2023-05-31T12:01:02.482Z,25.62
2023-05-31T12:03:06.207Z,25.81
2023-05-31T12:05:13.311Z,26.37
2023-05-31T12:07:20.403Z,26.47
2023-05-31T12:09:28.851Z,26.27
2023-05-31T12:11:33.470Z,26.28
2023-05-31T12:13:34.940Z,26.26
2023-05-31T12:15:37.912Z,25.69
2023-05-31T12:17:40.588Z,26.24
2023-05-31T12:19:43.235Z,26.26
2023-05-31T12:21:45.833Z,26.44
2023-05-31T12:23:55.237Z,26.32
2023-05-31T12:25:59.192Z,26.32
2023-05-31T12:28:00.704Z,26.52
2023-05-31T12:30:02.885Z,26.28
2023-05-31T12:32:06.419Z,26.40
2023-05-31T12:34:13.272Z,26.36
2023-05-31T12:36:20.230Z,26.07
2023-05-31T12:38:27.822Z,26.58
2023-05-31T12:40:29.092Z,25.93
2023-05-31T12:42:30.593Z,25.99
2023-05-31T12:44:34.335Z,26.24
2023-05-31T12:46:44.070Z,25.80
2023-05-31T12:48:48.844Z,25.55
2023-05-31T12:50:50.391Z,24.92
2023-05-31T12:52:58.496Z,25.03
2023-05-31T12:55:01.749Z,25.27
2023-05-31T12:57:07.233Z,25.77
2023-05-31T12:59:09.170Z,25.91
2023-05-31T13:01:11.503Z,26.26
2023-05-31T13:03:14.425Z,26.55
2023-05-31T13:05:17.129Z,26.66
2023-05-31T13:07:18.944Z,26.40
2023-05-31T13:09:25.292Z,26.38
2023-05-31T13:11:28.545Z,26.22
2023-05-31T13:13:29.867Z,25.51
2023-05-31T13:15:31.420Z,25.17
2023-05-31T13:17:33.732Z,25.02
2023-05-31T13:19:35.601Z,25.20
2023-05-31T13:21:36.964Z,25.32
2023-05-31T13:23:38.899Z,25.15
2023-05-31T13:25:41.102Z,25.26
2023-05-31T13:27:42.871Z,25.37
2023-05-31T13:29:44.628Z,24.96
2023-05-31T13:31:46.292Z,24.86
2023-05-31T13:33:47.794Z,25.40
2023-05-31T13:35:49.466Z,25.37
2023-05-31T13:37:50.996Z,25.59
2023-05-31T13:39:52.655Z,25.90
2023-05-31T13:41:55.575Z,25.85
2023-05-31T13:43:57.006Z,26.36
2023-05-31T13:45:59.024Z,26.59
2023-05-31T13:48:00.968Z,26.60
2023-05-31T13:50:03.138Z,26.37
2023-05-31T13:52:07.095Z,26.50
2023-05-31T13:54:08.448Z,26.42
2023-05-31T13:56:10.898Z,26.42
2023-05-31T13:58:12.667Z,26.61
2023-05-31T14:00:14.711Z,26.55
2023-05-31T14:02:16.682Z,26.24
2023-05-31T14:04:17.893Z,26.35
2023-05-31T14:06:19.259Z,26.11
2023-05-31T14:08:23.034Z,26.01
2023-05-31T14:10:25.046Z,26.03
2023-05-31T14:12:26.481Z,26.45
2023-05-31T14:14:30.744Z,26.31
2023-05-31T14:16:32.704Z,26.43
2023-05-31T14:18:34.354Z,26.49
2023-05-31T14:20:35.776Z,26.37
2023-05-31T14:22:37.254Z,26.28
2023-05-31T14:24:38.712Z,26.26
2023-05-31T14:26:40.149Z,26.35
2023-05-31T14:28:41.642Z,26.30
2023-05-31T14:30:43.953Z,26.40
2023-05-31T14:32:45.469Z,26.87
2023-05-31T14:34:47.356Z,27.23
2023-05-31T14:36:49.170Z,27.16
2023-05-31T14:38:51.059Z,26.97
2023-05-31T14:40:55.513Z,27.09
2023-05-31T14:42:56.796Z,26.91
2023-05-31T14:44:58.175Z,27.14
2023-05-31T14:47:01.548Z,27.35
2023-05-31T14:49:05.569Z,26.81
2023-05-31T14:51:06.961Z,27.12
2023-05-31T14:53:13.890Z,27.21
2023-05-31T14:55:17.849Z,27.12
2023-05-31T14:57:22.066Z,26.92
2023-05-31T14:59:24.015Z,27.23
2023-05-31T15:01:25.580Z,27.25
2023-05-31T15:03:27.375Z,27.05
2023-05-31T15:05:29.064Z,27.07
2023-05-31T15:07:30.420Z,26.98
2023-05-31T15:09:33.197Z,26.94
2023-05-31T15:11:34.939Z,27.18
2023-05-31T15:13:36.676Z,27.09
2023-05-31T15:15:38.552Z,27.12
2023-05-31T15:17:40.606Z,27.27
2023-05-31T15:19:42.094Z,27.27
2023-05-31T15:21:43.543Z,27.46
2023-05-31T15:23:45.851Z,27.42
2023-05-31T15:25:47.281Z,27.28
2023-05-31T15:27:49.662Z,27.11
2023-05-31T15:29:51.311Z,26.95
2023-05-31T15:31:55.782Z,27.05
2023-05-31T15:33:57.136Z,27.27
2023-05-31T15:35:59.648Z,27.33
2023-05-31T15:38:01.471Z,27.16
2023-05-31T15:40:02.984Z,27.35
2023-05-31T15:42:04.530Z,26.95
2023-05-31T15:44:06.244Z,27.05
2023-05-31T15:46:07.562Z,26.98
2023-05-31T15:48:09.280Z,27.01
2023-05-31T15:50:11.806Z,26.90
2023-05-31T15:52:13.524Z,26.84
2023-05-31T15:54:17.582Z,27.11
2023-05-31T15:56:18.887Z,27.31
2023-05-31T15:58:22.147Z,27.27
2023-05-31T16:00:24.377Z,27.46
2023-05-31T16:02:26.893Z,27.20
2023-05-31T16:04:28.387Z,27.12
2023-05-31T16:06:30.563Z,27.25
2023-05-31T16:08:32.187Z,27.30
2023-05-31T16:10:33.717Z,27.46
2023-05-31T16:12:36.442Z,27.64
2023-05-31T16:14:38.470Z,28.00
2023-05-31T16:16:40.235Z,28.09
2023-05-31T16:18:41.723Z,27.95
2023-05-31T16:20:43.079Z,27.93
2023-05-31T16:22:44.647Z,28.04
2023-05-31T16:24:47.720Z,27.94
2023-05-31T16:26:50.816Z,27.71
2023-05-31T16:28:53.475Z,27.87
2023-05-31T16:30:54.880Z,27.91
2023-05-31T16:32:58.305Z,28.05
2023-05-31T16:34:59.622Z,28.12
2023-05-31T16:37:01.009Z,28.18
2023-05-31T16:39:04.435Z,28.47
2023-05-31T16:41:07.144Z,28.80
2023-05-31T16:43:09.448Z,28.91
2023-05-31T16:45:10.769Z,29.00
2023-05-31T16:47:12.656Z,29.01
2023-05-31T16:49:15.359Z,28.98
2023-05-31T16:51:17.297Z,29.23
2023-05-31T16:53:21.395Z,29.55
2023-05-31T16:55:22.893Z,29.50
2023-05-31T16:57:25.634Z,29.44
2023-05-31T16:59:27.175Z,29.46
2023-05-31T17:01:29.274Z,29.39
2023-05-31T17:03:31.242Z,29.27
2023-05-31T17:05:33.680Z,29.08
2023-05-31T17:07:35.919Z,29.30
2023-05-31T17:09:37.537Z,29.26
2023-05-31T17:11:39.363Z,29.24
2023-05-31T17:13:40.984Z,29.32
2023-05-31T17:15:42.521Z,29.39
2023-05-31T17:17:44.057Z,29.36
2023-05-31T17:19:45.463Z,29.05
2023-05-31T17:21:47.395Z,29.04
2023-05-31T17:23:48.742Z,28.95
2023-05-31T17:25:52.871Z,28.97
2023-05-31T17:27:54.667Z,29.33
2023-05-31T17:29:56.531Z,29.56
2023-05-31T17:31:58.460Z,29.64
2023-05-31T17:34:02.077Z,30.06
2023-05-31T17:36:04.298Z,30.09
2023-05-31T17:38:05.845Z,29.87
2023-05-31T17:40:08.117Z,29.90
2023-05-31T17:42:12.224Z,30.03
2023-05-31T17:44:14.622Z,30.14
2023-05-31T17:46:16.806Z,30.09
2023-05-31T17:48:20.162Z,30.21
2023-05-31T17:50:21.838Z,30.20
2023-05-31T17:52:24.642Z,30.61
2023-05-31T17:54:26.932Z,30.49
2023-05-31T17:56:28.490Z,30.71
2023-05-31T17:58:30.919Z,30.80
2023-05-31T18:00:35.224Z,31.01
2023-05-31T18:02:37.055Z,30.98
2023-05-31T18:04:39.551Z,31.06
2023-05-31T18:06:41.249Z,31.23
2023-05-31T18:08:42.565Z,31.45
2023-05-31T18:10:43.901Z,31.62
2023-05-31T18:12:47.288Z,31.79
2023-05-31T18:14:49.693Z,32.09
2023-05-31T18:16:53.405Z,32.32
2023-05-31T18:18:56.795Z,32.32
2023-05-31T18:20:58.684Z,32.65
2023-05-31T18:23:00.815Z,32.73
2023-05-31T18:25:02.556Z,32.83
2023-05-31T18:27:18.875Z,33.24
2023-05-31T18:29:25.023Z,33.53
2023-05-31T18:31:33.753Z,33.40
2023-05-31T18:33:36.558Z,33.76
2023-05-31T18:35:40.922Z,33.79
2023-05-31T18:37:44.043Z,34.03
2023-05-31T18:39:45.999Z,34.04
2023-05-31T18:41:47.418Z,34.02
2023-05-31T18:43:50.868Z,33.77
2023-05-31T18:45:52.575Z,33.88
2023-05-31T18:47:55.398Z,33.93
2023-05-31T18:49:57.147Z,33.84
2023-05-31T18:51:59.252Z,34.04
2023-05-31T18:54:03.568Z,34.12
2023-05-31T18:56:05.922Z,34.32
2023-05-31T18:58:07.435Z,34.33
2023-05-31T19:00:10.313Z,34.50
2023-05-31T19:02:12.041Z,34.73
2023-05-31T19:04:14.285Z,34.85
2023-05-31T19:06:17.145Z,35.01
2023-05-31T19:08:21.495Z,35.14
2023-05-31T19:10:26.293Z,35.28
2023-05-31T19:12:32.011Z,35.52
2023-05-31T19:14:34.661Z,35.94
2023-05-31T19:16:37.631Z,36.08
2023-05-31T19:18:39.632Z,36.23
2023-05-31T19:20:47.066Z,36.16
2023-05-31T19:22:55.064Z,36.27
2023-05-31T19:25:00.885Z,36.52
2023-05-31T19:27:02.358Z,36.66
2023-05-31T19:29:06.932Z,36.91
2023-05-31T19:31:08.535Z,37.00
2023-05-31T19:33:12.279Z,37.00
2023-05-31T19:35:14.240Z,37.45
2023-05-31T19:37:15.890Z,37.43
2023-05-31T19:39:20.580Z,37.73
2023-05-31T19:41:22.340Z,37.70
2023-05-31T19:43:24.014Z,37.60
2023-05-31T19:45:26.517Z,37.75
2023-05-31T19:47:28.013Z,38.03
2023-05-31T19:49:29.590Z,38.09
2023-05-31T19:51:32.081Z,38.04
2023-05-31T19:53:36.298Z,38.18
2023-05-31T19:55:38.775Z,38.30
2023-05-31T19:57:40.745Z,38.37
2023-05-31T19:59:42.208Z,38.48
2023-05-31T20:01:43.779Z,38.91
2023-05-31T20:03:45.534Z,38.77
2023-05-31T20:05:48.157Z,38.96
2023-05-31T20:07:49.718Z,39.31
2023-05-31T20:09:51.172Z,39.21
2023-05-31T20:11:52.615Z,39.14
2023-05-31T20:13:55.054Z,39.38
2023-05-31T20:15:56.469Z,39.45
2023-05-31T20:17:58.057Z,39.59
2023-05-31T20:19:59.900Z,39.42
2023-05-31T20:22:01.999Z,39.48
2023-05-31T20:24:04.854Z,39.59
2023-05-31T20:26:06.258Z,39.79
2023-05-31T20:28:09.418Z,39.83
2023-05-31T20:30:12.004Z,39.80
2023-05-31T20:32:17.847Z,39.97
2023-05-31T20:34:20.794Z,40.15
2023-05-31T20:36:22.576Z,40.11
2023-05-31T20:38:24.730Z,39.88
2023-05-31T20:40:27.124Z,39.93
2023-05-31T20:42:28.528Z,40.09
2023-05-31T20:44:30.205Z,40.07
2023-05-31T20:46:32.100Z,40.24
2023-05-31T20:48:33.893Z,40.37
2023-05-31T20:50:37.593Z,40.50
2023-05-31T20:52:39.933Z,40.60
2023-05-31T20:54:41.852Z,40.69
2023-05-31T20:56:43.787Z,40.67
2023-05-31T20:58:48.092Z,40.89
2023-05-31T21:00:59.192Z,40.51
2023-05-31T21:03:05.473Z,40.76
2023-05-31T21:05:07.446Z,40.77
2023-05-31T21:07:08.923Z,40.75
2023-05-31T21:09:10.511Z,41.03
2023-05-31T21:11:13.063Z,41.09
2023-05-31T21:13:15.639Z,41.25
2023-05-31T21:15:17.987Z,41.32
2023-05-31T21:17:23.266Z,41.24
2023-05-31T21:19:25.784Z,41.48
2023-05-31T21:21:28.590Z,41.53
2023-05-31T21:23:29.881Z,41.72
2023-05-31T21:25:31.204Z,41.74
2023-05-31T21:27:33.125Z,42.01
2023-05-31T21:29:35.078Z,41.97
2023-05-31T21:31:39.048Z,42.14
2023-05-31T21:33:40.773Z,42.18
2023-05-31T21:35:42.219Z,42.37
2023-05-31T21:37:44.797Z,42.56
2023-05-31T21:39:46.154Z,42.90
2023-05-31T21:41:48.618Z,42.94
2023-05-31T21:43:50.247Z,43.38
2023-05-31T21:45:51.768Z,43.48
2023-05-31T21:47:53.759Z,43.61
2023-05-31T21:49:55.586Z,43.80
2023-05-31T21:51:56.892Z,43.88
2023-05-31T21:54:00.245Z,43.85
2023-05-31T21:56:01.930Z,43.90
2023-05-31T21:58:03.267Z,44.06
2023-05-31T22:00:09.283Z,44.10
2023-05-31T22:02:10.813Z,43.98
2023-05-31T22:04:14.257Z,44.00
2023-05-31T22:06:15.846Z,43.92
2023-05-31T22:08:19.179Z,43.86
2023-05-31T22:10:21.486Z,44.05
2023-05-31T22:12:25.113Z,43.89
2023-05-31T22:14:28.534Z,44.05
2023-05-31T22:16:32.085Z,43.91
2023-05-31T22:18:33.817Z,44.02
2023-05-31T22:20:37.206Z,43.90
2023-05-31T22:22:39.506Z,43.86
2023-05-31T22:24:41.321Z,43.94
2023-05-31T22:26:46.867Z,44.04
2023-05-31T22:28:52.777Z,43.95
2023-05-31T22:30:55.630Z,43.75
2023-05-31T22:32:57.099Z,43.91
2023-05-31T22:35:01.135Z,44.05
2023-05-31T22:37:04.090Z,44.01
2023-05-31T22:39:05.634Z,44.16
2023-05-31T22:41:07.030Z,44.32
2023-05-31T22:43:09.124Z,44.34
2023-05-31T22:45:10.735Z,44.42
2023-05-31T22:47:14.310Z,44.73
2023-05-31T22:49:15.744Z,44.76
2023-05-31T22:51:18.323Z,44.55
2023-05-31T22:53:19.798Z,44.77
2023-05-31T22:55:22.422Z,44.83
2023-05-31T22:57:23.973Z,44.78
2023-05-31T22:59:25.440Z,44.72
2023-05-31T23:01:27.461Z,44.76
2023-05-31T23:03:30.102Z,44.88
2023-05-31T23:05:33.864Z,44.99
2023-05-31T23:07:36.142Z,44.98
2023-05-31T23:09:41.641Z,45.15
2023-05-31T23:11:44.942Z,45.33
2023-05-31T23:13:46.302Z,45.22
2023-05-31T23:15:47.956Z,45.29
2023-05-31T23:17:49.797Z,45.26
2023-05-31T23:19:53.091Z,45.45
2023-05-31T23:21:54.635Z,45.38
2023-05-31T23:23:56.380Z,45.69
2023-05-31T23:25:57.833Z,45.70
2023-05-31T23:28:01.347Z,45.98
2023-05-31T23:30:07.706Z,46.21
2023-05-31T23:32:09.174Z,46.13
2023-05-31T23:34:10.671Z,45.76
2023-05-31T23:36:13.042Z,46.07
2023-05-31T23:38:14.427Z,46.14
2023-05-31T23:40:17.259Z,46.14
2023-05-31T23:42:19.108Z,46.61
2023-05-31T23:44:20.744Z,46.49
2023-05-31T23:46:25.540Z,46.68
2023-05-31T23:48:27.284Z,46.69
2023-05-31T23:50:29.586Z,46.77
2023-05-31T23:52:30.964Z,46.82
2023-05-31T23:54:32.617Z,46.98
2023-05-31T23:56:35.750Z,46.78
2023-05-31T23:58:37.025Z,46.89
